Khoram Abad Airport


Codes: OICK/KHD
Name: Khoram Abad Airport
City:
Country: Iran
Elevation: 3782 ft.
Wikipedia:

Photos at Khoram Abad Airport


   Photos courtesy of SpottingLog. You can add your own sightings and photos by signing up for a free trial today.



No photos found.

Weather at Khoram Abad Airport


Time (UTC)DescriptionTempratureWindCloud coverageVisibilityPressureHumidity
15-Apr-2024 15:00Broken Clouds19°C2 mph, W75%10000m1015hPa42%
15-Apr-2024 18:00Broken Clouds18°C9 mph, E83%10000m1015hPa46%
15-Apr-2024 21:00Light Rain16°C2 mph, NE92%10000m1015hPa60%
16-Apr-2024 00:00Overcast Clouds15°C2 mph, E100%10000m1013hPa65%
16-Apr-2024 03:00Overcast Clouds15°C4 mph, E100%10000m1015hPa61%
16-Apr-2024 06:00Overcast Clouds18°C13 mph, E100%10000m1014hPa41%
16-Apr-2024 09:00Overcast Clouds22°C22 mph, NE97%10000m1013hPa29%
16-Apr-2024 12:00Overcast Clouds21°C29 mph, E99%10000m1012hPa36%
16-Apr-2024 15:00Few Clouds17°C20 mph, NE21%10000m1013hPa45%
16-Apr-2024 18:00Few Clouds15°C13 mph, NE17%10000m1014hPa48%
16-Apr-2024 21:00Clear Sky14°C9 mph, NE2%10000m1014hPa53%
17-Apr-2024 00:00Clear Sky12°C7 mph, NE1%10000m1014hPa55%
17-Apr-2024 03:00Clear Sky12°C7 mph, NE0%10000m1015hPa57%
17-Apr-2024 06:00Clear Sky18°C16 mph, NE0%10000m1014hPa37%
17-Apr-2024 09:00Clear Sky21°C20 mph, NE2%10000m1012hPa33%
17-Apr-2024 12:00Clear Sky23°C20 mph, NE6%10000m1010hPa30%
17-Apr-2024 15:00Scattered Clouds19°C9 mph, NE29%10000m1012hPa43%
17-Apr-2024 18:00Scattered Clouds17°C4 mph, E27%10000m1014hPa46%
17-Apr-2024 21:00Clear Sky15°C4 mph, E2%10000m1014hPa48%
18-Apr-2024 00:00Clear Sky14°C4 mph, E1%10000m1014hPa50%
18-Apr-2024 03:00Clear Sky15°C4 mph, E0%10000m1015hPa53%
18-Apr-2024 06:00Clear Sky20°C2 mph, NE0%10000m1015hPa34%
18-Apr-2024 09:00Clear Sky23°C2 mph, NW0%10000m1013hPa25%
18-Apr-2024 12:00Clear Sky24°C7 mph, W0%10000m1011hPa23%
18-Apr-2024 15:00Clear Sky21°C4 mph, SW0%10000m1011hPa36%
18-Apr-2024 18:00Clear Sky19°C2 mph, SW0%10000m1013hPa39%
18-Apr-2024 21:00Clear Sky17°C4 mph, SW0%10000m1013hPa44%
19-Apr-2024 00:00Clear Sky16°C2 mph, W0%10000m1013hPa49%
19-Apr-2024 03:00Clear Sky16°C0 mph, SE0%10000m1013hPa54%
19-Apr-2024 06:00Clear Sky21°C2 mph, W0%10000m1012hPa32%
19-Apr-2024 09:00Clear Sky24°C11 mph, W2%10000m1011hPa23%
19-Apr-2024 12:00Clear Sky24°C11 mph, SW7%10000m1010hPa25%
19-Apr-2024 15:00Light Rain22°C4 mph, SW0%10000m1009hPa38%
19-Apr-2024 18:00Light Rain18°C0 mph, NE40%10000m1012hPa54%
19-Apr-2024 21:00Light Rain17°C4 mph, SE81%10000m1012hPa57%
20-Apr-2024 00:00Broken Clouds16°C2 mph, N64%10000m1012hPa57%
20-Apr-2024 03:00Clear Sky16°C0 mph, E0%10000m1013hPa58%
20-Apr-2024 06:00Clear Sky22°C0 mph, N0%10000m1013hPa35%
20-Apr-2024 09:00Clear Sky25°C7 mph, W0%10000m1012hPa20%
20-Apr-2024 12:00Clear Sky26°C11 mph, W5%10000m1010hPa20%